Brandon, South Dakota
Current Conditions -  °F | °C
As of 10:56 PM on Friday 28 Nov 2014 (Local Time) from KFSD Reporting Station
Clear Clear  
Wind Chill: 18°   Ceiling: Unl
Heat Index: 24°   Visibility: 7mi
Dew Point: 22°   Wind: 5mph
Humidity: 91%   Direction: 90°E
Pressure: 29.56"   Gusts: NA
Location:  43.59°N, 96.57°W
Report Text: KFSD 290456Z 09004KT 7SM CLR M04/M06 A2956 RMK AO2 SLP029 T10441056
Loading
Personal Weather Stations






























Interactive Weather Map New forecast layout! Learn more

10-Day Weather Forecast

Advertisements
Track Severe Weather on mobile